Danevang, Texas
Current Conditions -  °F | °C
As of 4:35 PM on Tuesday 27 Jan 2015 (Local Time) from KARM Reporting Station
Clear Clear  
Wind Chill: 77°   Ceiling: Unl
Heat Index: 78°   Visibility: 10mi
Dew Point: 45°   Wind: 6mph
Humidity: 32%   Direction: 280°W
Pressure: 30.12"   Gusts: NA
Location:  29.06°N, 96.21°W
Report Text: KARM 272235Z AUTO 28005KT 10SM CLR 25/07 A3012 RMK AO2 T02500074
Loading
Personal Weather Stations






























Interactive Weather Map New forecast layout! Learn more

10-Day Weather Forecast

Advertisements
Track Severe Weather on mobile